Time;durP1;ratioP1;P1;durP2;ratioP2;P2;SDS_P1;SDS_P2;PMS_P1;PMS_P2;Temp;Humidity;BMP_temperature;BMP_pressure;BME280_temperature;BME280_humidity;BME280_pressure;Samples;Min_cycle;Max_cycle;Signal;HPM_P1;HPM_P2
2023/05/31 00:01:48;;;;;;;6.82;3.05;;;16.00;99.90;;;;;;5047682;28;20025;-76
2023/05/31 00:04:14;;;;;;;5.53;2.88;;;16.00;99.90;;;;;;5050018;28;20025;-75
2023/05/31 00:06:39;;;;;;;7.25;3.65;;;16.00;99.90;;;;;;5052270;28;20074;-76
2023/05/31 00:09:05;;;;;;;7.45;3.90;;;16.00;99.90;;;;;;5057800;28;20021;-76
2023/05/31 00:11:30;;;;;;;7.43;4.25;;;16.20;99.90;;;;;;5059236;28;20028;-76
2023/05/31 00:13:56;;;;;;;6.72;3.63;;;16.30;99.90;;;;;;5053267;28;20086;-76
2023/05/31 00:16:22;;;;;;;5.55;3.10;;;16.30;99.90;;;;;;5051214;28;20024;-77
2023/05/31 00:18:47;;;;;;;11.20;4.43;;;16.30;99.90;;;;;;5051488;28;20032;-76
2023/05/31 00:21:13;;;;;;;6.13;3.38;;;16.40;99.90;;;;;;5052084;28;20042;-77
2023/05/31 00:23:39;;;;;;;7.72;4.35;;;16.30;99.90;;;;;;5058517;28;20025;-76
2023/05/31 00:26:05;;;;;;;6.85;3.42;;;16.40;99.90;;;;;;5051508;28;20044;-76
2023/05/31 00:28:30;;;;;;;7.75;3.95;;;16.50;99.90;;;;;;5060641;28;20040;-76
2023/05/31 00:30:56;;;;;;;7.95;4.38;;;16.40;99.90;;;;;;5050854;28;20056;-76
2023/05/31 00:33:22;;;;;;;6.85;3.97;;;16.50;99.90;;;;;;5053866;28;20486;-76
2023/05/31 00:35:47;;;;;;;7.28;4.00;;;16.50;99.90;;;;;;5053291;28;20467;-76
2023/05/31 00:38:13;;;;;;;7.32;3.88;;;16.60;99.90;;;;;;5055702;28;20470;-76
2023/05/31 00:40:39;;;;;;;8.07;3.70;;;16.70;99.90;;;;;;5055329;28;20032;-76
2023/05/31 00:43:04;;;;;;;7.95;3.78;;;16.60;99.90;;;;;;5051790;28;20021;-76
2023/05/31 00:45:32;;;;;;;7.35;3.70;;;16.60;99.90;;;;;;5056065;28;20029;-77
2023/05/31 00:48:02;;;;;;;7.72;3.20;;;16.60;99.90;;;;;;5053483;28;20036;-76
2023/05/31 00:50:29;;;;;;;9.80;4.32;;;16.60;99.90;;;;;;5054953;28;20056;-76
2023/05/31 00:52:57;;;;;;;8.38;3.38;;;16.60;99.90;;;;;;5053419;28;20506;-76
2023/05/31 00:55:24;;;;;;;8.07;4.10;;;16.60;99.90;;;;;;5052495;28;20045;-76
2023/05/31 00:57:51;;;;;;;6.90;4.03;;;16.60;99.90;;;;;;5063430;28;20101;-76
2023/05/31 01:00:17;;;;;;;8.35;4.10;;;16.60;99.90;;;;;;5056715;28;20037;-76
2023/05/31 01:02:43;;;;;;;7.20;3.35;;;16.60;99.90;;;;;;5050507;28;20029;-76
2023/05/31 01:05:09;;;;;;;7.65;4.05;;;16.50;99.90;;;;;;5051666;28;20410;-76
2023/05/31 01:07:36;;;;;;;6.97;3.42;;;16.30;99.90;;;;;;5055832;28;20471;-76
2023/05/31 01:10:03;;;;;;;6.82;3.35;;;16.50;99.90;;;;;;5058863;28;20029;-76
2023/05/31 01:12:52;;;;;;;7.50;3.05;;;16.60;99.90;;;;;;5057424;28;20047;-76
2023/05/31 01:15:41;;;;;;;8.35;3.63;;;16.80;99.90;;;;;;5049797;28;20044;-76
2023/05/31 01:18:26;;;;;;;6.43;3.20;;;16.80;99.90;;;;;;5051443;28;20391;-76
2023/05/31 01:20:54;;;;;;;7.03;3.60;;;16.80;99.90;;;;;;5051023;28;20021;-76
2023/05/31 01:23:33;;;;;;;6.93;3.30;;;16.70;99.90;;;;;;5058440;28;20044;-76
2023/05/31 01:26:17;;;;;;;5.75;2.90;;;16.80;99.90;;;;;;5055842;28;20064;-76
2023/05/31 01:28:44;;;;;;;6.70;3.67;;;16.70;99.90;;;;;;5051577;28;20044;-76
2023/05/31 01:31:16;;;;;;;6.30;3.60;;;16.50;99.90;;;;;;5054357;28;20029;-77
2023/05/31 01:33:42;;;;;;;8.40;4.13;;;16.40;99.90;;;;;;5055614;28;20033;-76
2023/05/31 01:36:08;;;;;;;6.88;3.60;;;16.20;99.90;;;;;;5057060;28;20028;-77
2023/05/31 01:38:34;;;;;;;7.28;3.70;;;16.20;99.90;;;;;;5053795;28;20028;-76
2023/05/31 01:41:01;;;;;;;8.43;3.80;;;16.10;99.90;;;;;;5053482;28;20493;-77
2023/05/31 01:43:28;;;;;;;6.43;3.97;;;16.00;99.90;;;;;;5049101;28;20021;-77
2023/05/31 01:45:54;;;;;;;6.80;3.72;;;15.80;99.90;;;;;;5048701;28;20513;-77
2023/05/31 01:48:20;;;;;;;6.70;3.13;;;15.60;99.90;;;;;;5051249;28;20029;-77
2023/05/31 01:50:46;;;;;;;7.03;3.65;;;15.50;99.90;;;;;;5054117;28;20498;-77
2023/05/31 01:53:12;;;;;;;6.13;3.30;;;15.30;99.90;;;;;;5052296;28;20386;-77
2023/05/31 01:55:38;;;;;;;7.38;3.67;;;15.30;99.90;;;;;;5052839;28;20183;-77
2023/05/31 01:58:05;;;;;;;7.97;4.40;;;15.20;99.90;;;;;;5053558;28;20540;-77
2023/05/31 02:00:31;;;;;;;8.60;3.63;;;15.10;99.90;;;;;;5059360;28;20115;-77
2023/05/31 02:02:57;;;;;;;7.63;3.53;;;15.10;99.90;;;;;;5050837;28;20025;-77
2023/05/31 02:05:23;;;;;;;6.57;3.85;;;15.10;99.90;;;;;;5051016;28;20033;-77
2023/05/31 02:07:49;;;;;;;6.43;4.00;;;15.10;99.90;;;;;;5050316;28;20090;-77
2023/05/31 02:10:15;;;;;;;7.15;3.95;;;15.10;99.90;;;;;;5049510;28;20159;-77
2023/05/31 02:12:41;;;;;;;8.82;4.13;;;15.10;99.90;;;;;;5064592;28;20387;-77
2023/05/31 02:15:13;;;;;;;6.95;3.90;;;14.80;99.90;;;;;;5055286;28;20029;-77
2023/05/31 02:17:42;;;;;;;6.60;3.47;;;14.70;99.90;;;;;;5048172;28;20514;-77
2023/05/31 02:20:13;;;;;;;7.57;4.03;;;14.70;99.90;;;;;;5054648;28;20387;-77
2023/05/31 02:22:45;;;;;;;7.40;3.50;;;14.50;99.90;;;;;;5048177;28;20041;-77
2023/05/31 02:25:13;;;;;;;7.85;3.38;;;14.70;99.90;;;;;;5049521;28;20028;-78
2023/05/31 02:27:39;;;;;;;6.97;4.03;;;14.70;99.90;;;;;;5050942;28;20040;-77
2023/05/31 02:30:06;;;;;;;9.30;3.75;;;14.80;99.90;;;;;;5052683;28;20024;-77
2023/05/31 02:32:37;;;;;;;8.68;4.18;;;14.80;99.90;;;;;;5051967;28;20044;-76
2023/05/31 02:35:07;;;;;;;10.25;4.47;;;14.90;99.90;;;;;;5050030;28;20499;-77
2023/05/31 02:37:33;;;;;;;6.90;3.92;;;15.00;99.90;;;;;;5049899;28;20048;-77
2023/05/31 02:39:59;;;;;;;7.07;3.83;;;15.10;99.90;;;;;;5052273;28;20086;-77
2023/05/31 02:42:25;;;;;;;8.55;3.90;;;15.10;99.90;;;;;;5052509;28;20024;-77
2023/05/31 02:44:50;;;;;;;7.75;3.80;;;15.10;99.90;;;;;;5049464;28;20083;-76
2023/05/31 02:47:16;;;;;;;7.03;3.95;;;15.10;99.90;;;;;;5050016;28;20033;-77
2023/05/31 02:49:42;;;;;;;10.15;3.78;;;15.00;99.90;;;;;;5053449;28;20476;-77
2023/05/31 02:52:08;;;;;;;6.35;3.17;;;15.00;99.90;;;;;;5056115;28;20033;-75
2023/05/31 02:54:33;;;;;;;6.20;3.58;;;14.90;99.90;;;;;;5056132;28;20390;-79
2023/05/31 02:56:59;;;;;;;7.03;4.35;;;15.00;99.90;;;;;;5047142;28;20052;-77
2023/05/31 02:59:25;;;;;;;7.43;3.63;;;15.00;99.90;;;;;;5054917;28;20024;-77
2023/05/31 03:01:51;;;;;;;14.30;4.07;;;14.90;99.90;;;;;;5051722;28;20025;-75
2023/05/31 03:04:17;;;;;;;7.82;4.22;;;15.00;99.90;;;;;;5045228;28;20124;-75
2023/05/31 03:06:43;;;;;;;7.07;3.63;;;15.00;99.90;;;;;;5046704;28;20112;-76
2023/05/31 03:09:09;;;;;;;8.40;4.07;;;15.00;99.90;;;;;;5046996;28;20059;-75
2023/05/31 03:11:35;;;;;;;7.20;3.78;;;15.10;99.90;;;;;;5042247;28;20029;-76
2023/05/31 03:14:00;;;;;;;11.10;4.22;;;15.00;99.90;;;;;;5045028;28;20036;-75
2023/05/31 03:16:28;;;;;;;6.63;4.00;;;15.00;99.90;;;;;;5049780;28;20033;-75
2023/05/31 03:18:54;;;;;;;7.72;3.72;;;15.10;99.90;;;;;;5039869;28;20029;-75
2023/05/31 03:21:19;;;;;;;8.15;4.13;;;15.00;99.90;;;;;;5042278;28;20040;-75
2023/05/31 03:23:45;;;;;;;8.32;4.00;;;15.10;99.90;;;;;;5049826;28;20483;-76
2023/05/31 03:26:11;;;;;;;7.15;3.92;;;15.10;99.90;;;;;;5046074;28;20029;-75
2023/05/31 03:28:36;;;;;;;6.15;3.10;;;15.10;99.90;;;;;;5045052;28;20052;-76
2023/05/31 03:31:02;;;;;;;8.63;4.00;;;15.10;99.90;;;;;;5047576;28;20029;-75
2023/05/31 03:33:27;;;;;;;7.15;3.90;;;15.10;99.90;;;;;;5043139;28;20042;-76
2023/05/31 03:35:53;;;;;;;7.10;3.80;;;15.10;99.90;;;;;;5050559;28;20483;-75
2023/05/31 03:38:19;;;;;;;7.68;3.83;;;15.10;99.90;;;;;;5044695;28;20029;-76
2023/05/31 03:40:45;;;;;;;7.43;3.60;;;15.10;99.90;;;;;;5043775;28;20099;-75
2023/05/31 03:43:10;;;;;;;6.28;2.95;;;15.20;99.90;;;;;;5051976;28;20044;-76
2023/05/31 03:45:36;;;;;;;6.25;3.63;;;15.10;99.90;;;;;;5057020;28;20370;-75
2023/05/31 03:48:01;;;;;;;5.88;3.50;;;15.20;99.90;;;;;;5047907;28;20103;-75
2023/05/31 03:50:27;;;;;;;5.85;3.08;;;15.20;99.90;;;;;;5049854;28;20079;-75
2023/05/31 03:52:53;;;;;;;10.95;3.33;;;15.20;99.90;;;;;;5058408;28;20036;-75
2023/05/31 03:55:20;;;;;;;7.07;3.40;;;15.10;99.90;;;;;;5050536;28;20410;-75
2023/05/31 03:57:46;;;;;;;8.32;4.00;;;15.10;99.90;;;;;;5045534;28;20031;-75
2023/05/31 04:00:12;;;;;;;7.25;4.22;;;15.10;99.90;;;;;;5052462;28;20040;-75
2023/05/31 04:02:38;;;;;;;8.52;3.70;;;15.10;99.90;;;;;;5044373;28;20052;-76
2023/05/31 04:05:05;;;;;;;6.95;3.50;;;15.20;99.90;;;;;;5044887;28;20029;-75
2023/05/31 04:07:32;;;;;;;8.85;4.05;;;15.30;99.90;;;;;;5044225;28;20033;-74
2023/05/31 04:09:58;;;;;;;7.10;3.40;;;15.20;99.90;;;;;;5047195;28;20024;-75
2023/05/31 04:12:24;;;;;;;5.57;3.33;;;15.20;99.90;;;;;;5045718;28;20033;-75
2023/05/31 04:14:49;;;;;;;6.75;3.35;;;15.20;99.90;;;;;;5048463;28;20060;-75
2023/05/31 04:17:15;;;;;;;5.97;3.30;;;15.40;99.90;;;;;;5045730;28;20379;-76
2023/05/31 04:19:41;;;;;;;6.22;3.08;;;15.50;99.90;;;;;;5044147;28;20064;-75
2023/05/31 04:22:06;;;;;;;6.07;3.35;;;15.30;99.90;;;;;;5044589;28;20112;-75
2023/05/31 04:24:32;;;;;;;8.77;4.43;;;15.30;99.90;;;;;;5047051;28;20056;-76
2023/05/31 04:26:58;;;;;;;6.38;3.60;;;15.30;99.90;;;;;;5049327;28;20035;-77
2023/05/31 04:29:25;;;;;;;7.90;3.42;;;15.30;99.90;;;;;;5043336;28;20665;-77
2023/05/31 04:31:51;;;;;;;7.75;4.00;;;15.30;99.90;;;;;;5048132;28;20364;-76
2023/05/31 04:34:18;;;;;;;7.28;3.50;;;15.30;99.90;;;;;;5047673;28;20043;-77
2023/05/31 04:36:48;;;;;;;6.93;4.03;;;15.30;99.90;;;;;;5043776;28;20036;-76
2023/05/31 04:39:15;;;;;;;7.15;3.70;;;15.40;99.90;;;;;;5046305;28;20513;-76
2023/05/31 04:41:42;;;;;;;7.85;3.72;;;15.40;99.90;;;;;;5049796;28;20038;-76
2023/05/31 04:44:07;;;;;;;6.30;3.53;;;15.40;99.90;;;;;;5046176;28;20021;-77
2023/05/31 04:46:33;;;;;;;7.47;3.25;;;15.40;99.90;;;;;;5049490;28;20051;-76
2023/05/31 04:49:00;;;;;;;5.82;2.92;;;15.40;99.90;;;;;;5051268;28;20028;-77
2023/05/31 04:51:26;;;;;;;6.32;3.75;;;15.50;99.90;;;;;;5047584;28;20033;-77
2023/05/31 04:53:52;;;;;;;7.75;3.28;;;15.50;99.90;;;;;;5050224;28;20033;-77
2023/05/31 04:56:18;;;;;;;6.07;3.30;;;15.60;99.90;;;;;;5050518;28;20051;-76
2023/05/31 04:58:45;;;;;;;5.40;3.10;;;15.60;99.90;;;;;;5050149;28;20032;-76
2023/05/31 05:01:14;;;;;;;6.57;3.08;;;15.70;99.90;;;;;;5046032;28;20104;-76
2023/05/31 05:03:41;;;;;;;10.40;4.50;;;15.60;99.90;;;;;;5049431;28;20017;-76
2023/05/31 05:06:16;;;;;;;5.68;3.03;;;15.50;99.90;;;;;;5053893;28;20378;-76
2023/05/31 05:08:43;;;;;;;6.93;3.83;;;15.60;99.90;;;;;;5050105;28;20032;-76
2023/05/31 05:11:08;;;;;;;5.28;3.03;;;15.50;99.90;;;;;;5044696;28;20029;-76
2023/05/31 05:13:35;;;;;;;8.30;3.60;;;15.70;99.90;;;;;;5046531;28;20040;-76
2023/05/31 05:16:02;;;;;;;7.22;3.75;;;15.60;99.90;;;;;;5043324;28;20063;-76
2023/05/31 05:18:28;;;;;;;6.55;3.63;;;15.70;99.90;;;;;;5050599;28;20035;-76
2023/05/31 05:20:54;;;;;;;7.22;3.83;;;15.70;99.90;;;;;;5042800;28;20037;-77
2023/05/31 05:23:19;;;;;;;9.80;4.45;;;15.80;99.90;;;;;;5049218;28;20387;-77
2023/05/31 05:25:45;;;;;;;7.25;4.47;;;15.90;99.90;;;;;;5044290;28;20040;-76
2023/05/31 05:28:11;;;;;;;7.25;3.78;;;15.90;99.90;;;;;;5052229;28;20265;-77
2023/05/31 05:30:37;;;;;;;6.88;3.13;;;15.90;99.90;;;;;;5048487;28;20082;-77
2023/05/31 05:33:03;;;;;;;7.93;3.70;;;16.10;99.90;;;;;;5045627;28;20025;-75
2023/05/31 05:35:30;;;;;;;7.93;3.60;;;16.20;99.90;;;;;;5048172;28;20025;-76
2023/05/31 05:37:57;;;;;;;6.72;3.22;;;16.20;99.90;;;;;;5047716;28;20544;-76
2023/05/31 05:40:23;;;;;;;5.75;3.22;;;16.30;99.90;;;;;;5045644;28;20475;-76
2023/05/31 05:42:49;;;;;;;6.20;2.95;;;16.40;99.90;;;;;;5049719;28;20075;-76
2023/05/31 05:45:15;;;;;;;7.07;3.72;;;16.40;99.90;;;;;;5048869;28;20032;-74
2023/05/31 05:47:44;;;;;;;6.43;3.80;;;16.60;99.90;;;;;;5050147;28;20506;-74
2023/05/31 05:50:11;;;;;;;6.97;3.90;;;16.70;99.90;;;;;;5046323;28;20034;-74
2023/05/31 05:52:37;;;;;;;6.03;3.22;;;16.80;99.90;;;;;;5046690;28;20028;-75
2023/05/31 05:55:03;;;;;;;6.95;3.60;;;16.80;99.90;;;;;;5046017;28;20093;-74
2023/05/31 05:57:29;;;;;;;8.35;4.00;;;16.90;99.90;;;;;;5042739;28;20082;-75
2023/05/31 05:59:56;;;;;;;7.93;3.67;;;17.00;99.90;;;;;;5044063;28;20059;-74
2023/05/31 06:02:22;;;;;;;7.78;3.75;;;16.90;99.90;;;;;;5046199;28;20113;-75
2023/05/31 06:04:49;;;;;;;6.32;3.65;;;16.80;99.90;;;;;;5043996;28;20075;-75
2023/05/31 06:07:15;;;;;;;8.15;4.13;;;17.00;99.90;;;;;;5044602;28;20044;-74
2023/05/31 06:09:41;;;;;;;9.38;3.58;;;16.90;99.90;;;;;;5050793;28;20029;-74
2023/05/31 06:12:08;;;;;;;5.88;3.67;;;16.90;99.90;;;;;;5048416;28;20035;-73
2023/05/31 06:14:33;;;;;;;5.97;3.47;;;17.00;99.90;;;;;;5044842;28;20087;-74
2023/05/31 06:16:59;;;;;;;7.00;3.90;;;17.10;99.90;;;;;;5042965;28;20064;-74
2023/05/31 06:19:25;;;;;;;8.77;4.05;;;17.10;99.90;;;;;;5051635;28;20036;-74
2023/05/31 06:21:51;;;;;;;8.15;4.13;;;17.10;99.90;;;;;;5051708;28;20029;-74
2023/05/31 06:24:17;;;;;;;7.53;4.38;;;16.90;99.90;;;;;;5045325;28;20109;-74
2023/05/31 06:26:43;;;;;;;8.30;4.25;;;16.80;99.90;;;;;;5049804;28;20071;-74
2023/05/31 06:29:08;;;;;;;7.72;4.82;;;16.70;99.90;;;;;;5045579;28;20025;-74
2023/05/31 06:31:35;;;;;;;8.27;4.20;;;16.60;99.90;;;;;;5048425;28;20184;-74
2023/05/31 06:34:02;;;;;;;9.95;3.88;;;16.70;99.90;;;;;;5044895;28;20059;-74
2023/05/31 06:36:29;;;;;;;8.02;3.85;;;16.70;99.90;;;;;;5047135;28;20025;-74
2023/05/31 06:38:55;;;;;;;8.23;3.72;;;16.80;99.90;;;;;;5040442;28;20036;-75
2023/05/31 06:41:21;;;;;;;6.95;4.10;;;16.90;99.90;;;;;;5044246;28;20508;-74
2023/05/31 06:43:47;;;;;;;8.35;3.60;;;17.00;99.90;;;;;;5047570;28;20078;-75
2023/05/31 06:46:13;;;;;;;6.32;3.85;;;17.10;99.90;;;;;;5044680;28;20041;-74
2023/05/31 06:48:38;;;;;;;8.45;3.88;;;17.30;99.90;;;;;;5045987;28;20584;-74
2023/05/31 06:51:04;;;;;;;6.68;3.55;;;17.50;99.90;;;;;;5046476;28;20086;-74
2023/05/31 06:53:30;;;;;;;7.10;3.55;;;17.60;99.90;;;;;;5058079;28;20041;-74
2023/05/31 06:55:56;;;;;;;7.03;4.32;;;17.60;99.90;;;;;;5043107;28;20041;-73
2023/05/31 06:58:21;;;;;;;6.28;3.63;;;17.70;99.90;;;;;;5042492;28;20033;-75
2023/05/31 07:00:47;;;;;;;6.45;3.42;;;17.90;99.90;;;;;;5048153;28;20124;-74
2023/05/31 07:03:13;;;;;;;8.82;4.10;;;18.10;99.90;;;;;;5051081;28;20055;-73
2023/05/31 07:05:42;;;;;;;7.28;3.92;;;18.30;99.90;;;;;;5044979;28;20032;-73
2023/05/31 07:08:07;;;;;;;7.15;3.72;;;18.40;99.90;;;;;;5047933;28;20670;-75
2023/05/31 07:10:33;;;;;;;6.82;3.75;;;18.60;99.90;;;;;;5045718;28;20037;-74
2023/05/31 07:12:59;;;;;;;7.65;3.90;;;18.80;99.90;;;;;;5045737;28;20040;-74
2023/05/31 07:15:25;;;;;;;7.55;4.03;;;18.90;99.90;;;;;;5044963;28;20044;-74
2023/05/31 07:17:51;;;;;;;7.95;3.80;;;19.00;99.90;;;;;;5047424;28;23674;-73
2023/05/31 07:20:16;;;;;;;6.25;3.45;;;19.20;99.90;;;;;;5048265;28;20036;-72
2023/05/31 07:22:42;;;;;;;12.45;3.63;;;19.50;99.90;;;;;;5051199;28;20498;-72
2023/05/31 07:25:08;;;;;;;6.93;3.42;;;19.40;99.90;;;;;;5045888;28;20529;-72
2023/05/31 07:27:34;;;;;;;7.43;3.22;;;19.80;99.90;;;;;;5048726;28;20556;-73
2023/05/31 07:29:59;;;;;;;8.60;3.50;;;20.90;99.90;;;;;;5046490;28;20098;-72
2023/05/31 07:32:25;;;;;;;5.60;3.25;;;20.90;99.90;;;;;;5048188;28;20035;-72
2023/05/31 07:34:51;;;;;;;10.40;3.75;;;21.90;99.90;;;;;;5051642;28;20040;-73
2023/05/31 07:37:16;;;;;;;6.05;3.50;;;23.00;98.90;;;;;;5048648;28;20040;-73
2023/05/31 07:39:44;;;;;;;5.45;3.20;;;23.60;96.30;;;;;;5048987;28;20040;-72
2023/05/31 07:42:10;;;;;;;5.68;3.22;;;22.60;96.70;;;;;;5047487;28;20040;-72
2023/05/31 07:44:35;;;;;;;6.30;2.80;;;21.70;96.90;;;;;;5045744;28;20368;-73
2023/05/31 07:47:01;;;;;;;6.50;3.80;;;20.50;98.70;;;;;;5046813;28;20045;-74
2023/05/31 07:49:27;;;;;;;5.43;3.20;;;19.60;99.90;;;;;;5050504;28;20125;-74
2023/05/31 07:51:52;;;;;;;7.00;3.63;;;19.30;99.90;;;;;;5046950;28;20708;-74
2023/05/31 07:54:18;;;;;;;5.30;3.03;;;19.10;99.90;;;;;;5050962;28;20036;-74
2023/05/31 07:56:44;;;;;;;6.47;3.47;;;19.20;99.90;;;;;;5048691;28;20107;-73
2023/05/31 07:59:09;;;;;;;6.05;3.22;;;19.20;99.90;;;;;;5047774;28;20033;-73
2023/05/31 08:01:35;;;;;;;7.50;3.63;;;19.20;99.90;;;;;;5053094;28;20398;-74
2023/05/31 08:04:08;;;;;;;7.93;3.80;;;19.40;99.90;;;;;;5051416;28;20079;-74
2023/05/31 08:06:34;;;;;;;6.90;3.70;;;19.50;99.90;;;;;;5050224;28;20041;-74
2023/05/31 08:09:00;;;;;;;7.15;3.50;;;19.50;99.90;;;;;;5052011;28;20063;-74
2023/05/31 08:11:27;;;;;;;8.48;4.32;;;20.40;99.90;;;;;;5058092;28;20028;-73
2023/05/31 08:13:53;;;;;;;8.30;4.13;;;20.80;99.90;;;;;;5052863;28;20029;-74
2023/05/31 08:16:18;;;;;;;6.68;4.03;;;20.90;99.90;;;;;;5049325;28;20470;-74
2023/05/31 08:18:45;;;;;;;5.95;3.63;;;21.30;99.90;;;;;;5048826;28;20575;-73
2023/05/31 08:21:11;;;;;;;6.32;3.42;;;21.80;99.90;;;;;;5051059;28;20489;-74
2023/05/31 08:23:37;;;;;;;8.35;3.85;;;21.80;98.80;;;;;;5048626;28;20041;-74
2023/05/31 08:26:02;;;;;;;7.35;3.60;;;21.30;99.90;;;;;;5048038;28;20021;-74
2023/05/31 08:28:29;;;;;;;8.02;4.10;;;21.40;99.90;;;;;;5055106;28;20029;-74
2023/05/31 08:30:55;;;;;;;8.85;3.97;;;21.10;99.90;;;;;;5050845;28;20054;-74
2023/05/31 08:33:21;;;;;;;8.43;4.30;;;21.30;99.90;;;;;;5052102;28;20033;-74
2023/05/31 08:35:47;;;;;;;6.15;3.45;;;21.40;99.90;;;;;;5047010;28;20024;-74
2023/05/31 08:38:12;;;;;;;9.45;4.03;;;21.70;99.90;;;;;;5049030;28;20029;-73
2023/05/31 08:40:39;;;;;;;6.18;3.53;;;21.50;99.90;;;;;;5049487;28;20070;-74
2023/05/31 08:43:15;;;;;;;7.88;4.22;;;21.80;99.70;;;;;;5050719;28;20408;-74
2023/05/31 08:45:42;;;;;;;8.15;3.92;;;21.20;99.60;;;;;;5046306;28;20087;-74
2023/05/31 08:48:37;;;;;;;6.25;3.97;;;21.20;99.90;;;;;;5047402;28;20052;-74
2023/05/31 08:51:05;;;;;;;8.27;3.95;;;21.20;99.80;;;;;;5047075;28;20033;-74
2023/05/31 08:53:33;;;;;;;8.82;3.65;;;21.90;99.50;;;;;;5047753;28;20402;-74
2023/05/31 08:56:01;;;;;;;8.23;4.45;;;21.50;98.70;;;;;;5046424;28;20102;-74
2023/05/31 08:58:28;;;;;;;7.50;3.55;;;21.50;99.60;;;;;;5046663;28;20928;-74
2023/05/31 09:00:54;;;;;;;6.90;3.70;;;21.80;99.90;;;;;;5044628;28;20043;-74
2023/05/31 09:03:22;;;;;;;5.45;3.35;;;22.40;99.90;;;;;;5052310;28;20025;-74
2023/05/31 09:05:48;;;;;;;7.75;3.97;;;22.40;99.40;;;;;;5046151;28;20143;-74
2023/05/31 09:08:14;;;;;;;7.13;3.15;;;22.60;98.20;;;;;;5047478;28;20052;-74
2023/05/31 09:10:40;;;;;;;6.80;3.45;;;22.70;97.80;;;;;;5051343;28;20383;-74
2023/05/31 09:13:07;;;;;;;6.30;3.80;;;22.80;98.00;;;;;;5050250;28;20104;-74
2023/05/31 09:15:35;;;;;;;5.45;3.42;;;22.70;97.50;;;;;;5051543;28;20033;-74
2023/05/31 09:18:20;;;;;;;5.85;3.40;;;22.80;97.20;;;;;;5047741;28;20378;-74
2023/05/31 09:20:52;;;;;;;5.68;3.58;;;22.90;97.80;;;;;;5045450;28;20090;-74
2023/05/31 09:23:18;;;;;;;6.80;3.55;;;22.80;97.30;;;;;;5048290;28;20374;-74
2023/05/31 09:25:48;;;;;;;6.32;3.55;;;22.90;97.20;;;;;;5048404;28;20671;-74
2023/05/31 09:28:14;;;;;;;8.73;3.40;;;23.20;96.90;;;;;;5047612;28;20040;-74
2023/05/31 09:30:41;;;;;;;6.00;3.60;;;23.40;96.50;;;;;;5050121;28;20025;-75
2023/05/31 09:33:07;;;;;;;6.57;3.22;;;23.40;95.40;;;;;;5049615;28;20024;-75
2023/05/31 09:35:33;;;;;;;5.57;3.42;;;23.60;96.10;;;;;;5052502;28;20021;-74
2023/05/31 09:38:06;;;;;;;6.25;3.28;;;23.80;96.10;;;;;;5052840;28;20099;-74
2023/05/31 09:40:33;;;;;;;7.13;3.60;;;23.40;94.00;;;;;;5045326;28;20029;-74
2023/05/31 09:42:59;;;;;;;5.32;3.22;;;23.90;94.90;;;;;;5048274;28;20060;-74
2023/05/31 09:45:25;;;;;;;8.63;4.13;;;24.00;94.40;;;;;;5058866;28;20024;-74
2023/05/31 09:47:52;;;;;;;7.47;3.35;;;24.30;95.70;;;;;;5049889;28;20455;-74
2023/05/31 09:50:19;;;;;;;9.65;3.75;;;24.60;95.10;;;;;;5048765;28;20623;-74
2023/05/31 09:52:46;;;;;;;6.10;3.15;;;24.40;94.40;;;;;;5052042;28;20039;-74
2023/05/31 09:55:14;;;;;;;6.15;3.53;;;24.20;94.10;;;;;;5045002;28;20042;-74
2023/05/31 09:57:41;;;;;;;6.28;2.92;;;24.40;93.70;;;;;;5044987;28;20021;-74
2023/05/31 10:00:15;;;;;;;5.32;2.92;;;23.90;92.20;;;;;;5049529;28;20028;-74
2023/05/31 10:02:45;;;;;;;7.70;3.17;;;23.80;92.10;;;;;;5039892;28;20027;-74
2023/05/31 10:05:13;;;;;;;5.03;3.33;;;24.20;94.00;;;;;;5043744;28;20033;-74
2023/05/31 10:07:40;;;;;;;5.20;3.22;;;24.10;91.70;;;;;;5046465;28;20198;-74
2023/05/31 10:10:07;;;;;;;5.07;3.38;;;24.10;93.10;;;;;;5047419;28;20039;-74
2023/05/31 10:12:39;;;;;;;6.00;3.38;;;24.20;93.80;;;;;;5043484;28;20080;-74
2023/05/31 10:15:10;;;;;;;6.40;2.97;;;24.40;93.30;;;;;;5055589;28;20459;-75
2023/05/31 10:17:40;;;;;;;6.57;3.47;;;24.40;93.50;;;;;;5052341;28;20367;-74
2023/05/31 10:20:11;;;;;;;5.88;3.38;;;24.60;93.20;;;;;;5043847;28;20615;-74
2023/05/31 10:22:42;;;;;;;5.95;3.60;;;24.70;93.20;;;;;;5044066;28;20074;-74
2023/05/31 10:25:15;;;;;;;7.97;3.55;;;24.90;93.50;;;;;;5043692;28;20770;-75
2023/05/31 10:27:45;;;;;;;6.43;3.97;;;24.90;94.40;;;;;;5047199;28;20498;-75
2023/05/31 10:30:13;;;;;;;6.35;3.20;;;25.10;93.60;;;;;;5049037;28;20134;-74
2023/05/31 10:32:46;;;;;;;6.72;4.00;;;25.20;94.70;;;;;;5054631;28;20482;-73
2023/05/31 10:35:11;;;;;;;6.80;3.88;;;25.00;93.80;;;;;;5051984;28;20079;-74
2023/05/31 10:37:41;;;;;;;6.20;3.72;;;25.20;94.00;;;;;;5052676;28;20033;-74
2023/05/31 10:40:07;;;;;;;7.32;3.55;;;25.40;93.70;;;;;;5050733;28;20029;-74
2023/05/31 10:42:59;;;;;;;8.27;3.50;;;25.50;93.20;;;;;;5048622;28;20174;-74
2023/05/31 10:45:36;;;;;;;5.80;3.33;;;25.30;91.90;;;;;;5049109;28;20020;-75
2023/05/31 10:48:11;;;;;;;7.28;3.28;;;25.30;91.00;;;;;;5047894;28;20091;-75
2023/05/31 10:50:55;;;;;;;7.28;3.50;;;25.70;90.70;;;;;;5052984;28;20033;-74
2023/05/31 10:53:21;;;;;;;6.28;3.55;;;25.70;91.30;;;;;;5043035;28;20055;-75
2023/05/31 10:55:48;;;;;;;5.72;3.47;;;25.90;91.40;;;;;;5044596;28;20080;-74
2023/05/31 10:58:28;;;;;;;7.13;3.90;;;26.60;92.60;;;;;;5042953;28;20498;-74
2023/05/31 11:00:56;;;;;;;6.75;3.08;;;26.70;92.20;;;;;;5048727;28;20025;-75
2023/05/31 11:03:27;;;;;;;7.25;3.10;;;26.70;92.60;;;;;;5044652;28;20033;-74
2023/05/31 11:05:57;;;;;;;6.75;3.17;;;26.10;91.50;;;;;;5043109;28;20035;-74
2023/05/31 11:08:24;;;;;;;5.53;3.05;;;25.50;91.30;;;;;;5050162;28;20127;-74
2023/05/31 11:10:50;;;;;;;7.10;4.22;;;25.40;92.30;;;;;;5042048;28;20039;-74
2023/05/31 11:13:17;;;;;;;5.38;3.45;;;25.70;92.20;;;;;;5045112;28;20032;-74
2023/05/31 11:15:45;;;;;;;9.55;3.90;;;26.00;92.90;;;;;;5044116;28;20033;-74
2023/05/31 11:18:20;;;;;;;5.63;3.45;;;25.80;93.50;;;;;;5048516;28;20028;-75
2023/05/31 11:20:46;;;;;;;5.57;3.80;;;25.60;91.30;;;;;;5042551;28;20056;-73
2023/05/31 11:23:24;;;;;;;5.97;3.33;;;25.50;92.80;;;;;;5051316;28;20575;-73
2023/05/31 11:26:14;;;;;;;5.90;3.30;;;25.50;93.10;;;;;;5046130;28;20040;-73
2023/05/31 11:29:03;;;;;;;6.28;3.67;;;25.20;92.70;;;;;;5049063;28;20072;-71
2023/05/31 11:31:50;;;;;;;5.97;3.40;;;25.30;92.70;;;;;;5042397;28;20375;-71
2023/05/31 11:34:29;;;;;;;6.68;3.17;;;25.80;91.80;;;;;;5047880;28;20024;-71
2023/05/31 11:37:03;;;;;;;7.32;3.55;;;26.50;91.50;;;;;;5044021;28;20036;-71
2023/05/31 11:39:30;;;;;;;5.32;2.97;;;26.60;91.40;;;;;;5052469;28;20036;-70
2023/05/31 11:41:56;;;;;;;5.15;3.28;;;26.20;90.50;;;;;;5047703;28;20029;-71
2023/05/31 11:44:32;;;;;;;5.88;2.80;;;26.20;90.60;;;;;;5042047;28;20112;-71
2023/05/31 11:47:09;;;;;;;6.68;3.55;;;26.00;90.30;;;;;;5046728;28;20035;-70
2023/05/31 11:49:35;;;;;;;9.45;3.65;;;25.80;90.60;;;;;;5047404;28;20033;-71
2023/05/31 11:52:03;;;;;;;9.40;3.78;;;26.20;92.00;;;;;;5050138;28;20017;-71
2023/05/31 11:54:30;;;;;;;7.47;3.58;;;26.70;90.40;;;;;;5043149;28;20029;-73
2023/05/31 11:57:04;;;;;;;5.32;3.30;;;26.50;88.80;;;;;;5049613;28;20049;-73
2023/05/31 11:59:34;;;;;;;6.28;3.75;;;26.40;89.60;;;;;;5041626;28;20029;-72
2023/05/31 12:02:01;;;;;;;6.45;3.25;;;26.60;90.00;;;;;;5051683;28;20390;-72
2023/05/31 12:04:31;;;;;;;6.30;2.92;;;26.40;88.00;;;;;;5050683;28;20472;-72
2023/05/31 12:06:57;;;;;;;6.82;3.28;;;25.90;89.70;;;;;;5047684;28;20067;-72
2023/05/31 12:09:27;;;;;;;5.15;2.90;;;25.90;90.00;;;;;;5051493;28;20097;-72
2023/05/31 12:11:55;;;;;;;6.20;3.40;;;25.90;90.20;;;;;;5043162;28;20028;-72
2023/05/31 12:14:22;;;;;;;5.45;3.35;;;25.40;90.00;;;;;;5049438;28;20058;-72
2023/05/31 12:16:50;;;;;;;7.05;3.53;;;25.20;89.40;;;;;;5044038;28;20478;-72
2023/05/31 12:19:17;;;;;;;6.93;4.03;;;25.20;90.70;;;;;;5044241;28;20025;-72
2023/05/31 12:21:43;;;;;;;6.13;3.20;;;25.00;90.10;;;;;;5045130;28;20122;-72
2023/05/31 12:24:17;;;;;;;5.75;3.55;;;24.80;90.10;;;;;;5047940;28;20025;-72
2023/05/31 12:26:44;;;;;;;6.22;3.30;;;25.00;90.40;;;;;;5049995;28;20059;-72
2023/05/31 12:29:25;;;;;;;5.20;2.90;;;25.00;90.20;;;;;;5046841;28;20151;-73
2023/05/31 12:32:03;;;;;;;6.72;3.90;;;25.10;90.80;;;;;;5053848;28;20119;-73
2023/05/31 12:34:30;;;;;;;6.78;3.33;;;25.00;90.60;;;;;;5053956;28;20216;-73
2023/05/31 12:36:56;;;;;;;8.40;3.53;;;24.90;90.30;;;;;;5052580;28;20017;-74
2023/05/31 12:39:26;;;;;;;6.78;3.95;;;24.80;90.90;;;;;;5049790;28;20029;-73
2023/05/31 12:41:52;;;;;;;6.38;3.35;;;25.00;90.40;;;;;;5047882;28;20448;-73
2023/05/31 12:44:20;;;;;;;6.25;3.53;;;25.10;90.90;;;;;;5045087;28;20166;-73
2023/05/31 12:46:48;;;;;;;7.85;3.53;;;24.90;89.90;;;;;;5055216;28;20045;-74
2023/05/31 12:49:22;;;;;;;7.18;3.80;;;24.70;90.10;;;;;;5046124;28;20035;-74